Time;durP1;ratioP1;P1;durP2;ratioP2;P2;SDS_P1;SDS_P2;PMS_P1;PMS_P2;Temp;Humidity;BMP_temperature;BMP_pressure;BME280_temperature;BME280_humidity;BME280_pressure;Samples;Min_cycle;Max_cycle;Signal;HPM_P1;HPM_P2
2022/06/09 00:01:46;;;;;;;12.32;7.28;;;;;;;21.38;63.91;100552.25;4923592;29;20031;-84
2022/06/09 00:04:24;;;;;;;10.95;7.03;;;;;;;21.36;63.73;100555.03;4939701;29;20031;-84
2022/06/09 00:06:56;;;;;;;11.85;6.95;;;;;;;21.26;63.50;100535.84;4939412;29;20031;-84
2022/06/09 00:09:23;;;;;;;11.98;7.40;;;;;;;21.34;63.88;100541.19;4923529;29;20134;-84
2022/06/09 00:11:49;;;;;;;9.13;6.20;;;;;;;21.20;63.62;100524.03;4923126;29;20108;-84
2022/06/09 00:14:15;;;;;;;8.18;5.97;;;;;;;21.33;63.77;100547.41;4938912;29;20031;-84
2022/06/09 00:16:41;;;;;;;6.40;5.60;;;;;;;21.27;63.75;100540.13;4923338;29;20070;-84
2022/06/09 00:19:07;;;;;;;7.50;5.82;;;;;;;21.08;63.83;100524.38;4923693;29;20515;-84
2022/06/09 00:21:33;;;;;;;9.02;5.72;;;;;;;21.08;64.24;100524.38;4923405;29;20027;-84
2022/06/09 00:23:59;;;;;;;8.27;5.45;;;;;;;21.06;64.47;100518.44;4923317;29;20074;-84
2022/06/09 00:26:24;;;;;;;7.47;5.70;;;;;;;20.89;64.31;100488.47;4907008;29;20031;-84
2022/06/09 00:28:50;;;;;;;6.43;5.07;;;;;;;21.09;64.51;100531.31;4938632;29;20031;-84
2022/06/09 00:31:15;;;;;;;6.95;5.40;;;;;;;21.01;64.52;100520.66;4907200;29;20062;-84
2022/06/09 00:33:40;;;;;;;7.13;5.60;;;;;;;21.02;64.51;100510.00;4907149;29;20039;-84
2022/06/09 00:36:06;;;;;;;7.13;5.53;;;;;;;21.02;64.52;100519.69;4907169;29;20031;-84
2022/06/09 00:38:31;;;;;;;5.90;5.10;;;;;;;20.99;64.69;100509.47;4907210;29;20062;-84
2022/06/09 00:40:58;;;;;;;7.60;5.10;;;;;;;20.96;64.97;100521.13;4938656;29;20485;-84
2022/06/09 00:43:23;;;;;;;5.57;4.82;;;;;;;20.76;65.54;100494.06;4922918;29;20471;-84
2022/06/09 00:46:15;;;;;;;7.38;5.07;;;;;;;20.91;65.75;100525.97;4922845;29;20051;-84
2022/06/09 00:48:58;;;;;;;6.85;5.10;;;;;;;20.83;65.94;100518.78;4923497;29;20045;-84
2022/06/09 00:51:47;;;;;;;6.68;4.93;;;;;;;20.73;66.37;100512.75;4925034;29;20515;-84
2022/06/09 00:54:14;;;;;;;5.95;5.13;;;;;;;20.66;66.48;100513.47;4939572;29;20041;-84
2022/06/09 00:56:48;;;;;;;6.70;5.30;;;;;;;20.61;66.65;100506.00;4955033;29;20142;-83
2022/06/09 00:59:15;;;;;;;11.30;5.78;;;;;;;20.68;66.58;100512.34;4907325;29;20038;-84
2022/06/09 01:01:40;;;;;;;5.93;4.95;;;;;;;20.67;66.84;100515.13;4922501;29;20050;-84
2022/06/09 01:04:08;;;;;;;5.97;5.25;;;;;;;20.64;67.27;100516.22;4938249;29;20390;-84
2022/06/09 01:06:41;;;;;;;6.13;4.90;;;;;;;20.67;67.48;100515.13;4922552;29;20031;-84
2022/06/09 01:09:14;;;;;;;5.65;5.00;;;;;;;20.64;67.28;100524.09;4922905;29;20050;-84
2022/06/09 01:11:40;;;;;;;6.38;5.07;;;;;;;20.58;67.38;100501.03;4922328;29;20023;-84
2022/06/09 01:14:06;;;;;;;7.20;4.95;;;;;;;20.37;67.68;100487.22;4906210;29;20031;-84
2022/06/09 01:17:04;;;;;;;6.80;5.40;;;;;;;20.54;67.83;100518.03;4906450;29;20480;-85
2022/06/09 01:19:59;;;;;;;7.97;5.25;;;;;;;20.48;67.91;100522.09;4924455;29;20043;-84
2022/06/09 01:22:47;;;;;;;6.50;5.40;;;;;;;20.46;68.29;100517.94;4920969;29;20035;-84
2022/06/09 01:25:23;;;;;;;6.25;5.20;;;;;;;20.49;68.07;100515.03;4954414;29;20039;-84
2022/06/09 01:28:07;;;;;;;8.05;5.55;;;;;;;20.56;67.72;100518.75;4938334;29;20135;-84
2022/06/09 01:30:46;;;;;;;7.75;5.03;;;;;;;20.46;68.08;100502.19;4937730;29;20469;-84
2022/06/09 01:33:19;;;;;;;7.07;4.95;;;;;;;20.28;68.40;100475.78;4937936;29;20027;-84
2022/06/09 01:35:49;;;;;;;8.43;5.13;;;;;;;20.52;68.06;100501.59;4906813;29;20059;-84
2022/06/09 01:38:15;;;;;;;7.45;5.60;;;;;;;20.58;67.84;100507.13;4922152;29;20031;-84
2022/06/09 01:40:40;;;;;;;6.03;4.75;;;;;;;20.47;67.87;100499.41;4922164;29;20028;-84
2022/06/09 01:43:06;;;;;;;6.40;5.10;;;;;;;20.43;67.53;100484.06;4905956;29;20045;-84
2022/06/09 01:46:02;;;;;;;7.10;4.60;;;;;;;20.61;67.19;100506.00;4921924;29;20035;-84
2022/06/09 01:48:27;;;;;;;7.10;5.15;;;;;;;20.42;67.29;100480.56;4940095;29;20114;-84
2022/06/09 01:50:57;;;;;;;7.20;4.95;;;;;;;20.45;67.74;100490.84;4921404;29;20416;-84
2022/06/09 01:53:32;;;;;;;9.35;5.25;;;;;;;20.61;67.42;100501.56;4905780;29;20394;-84
2022/06/09 01:56:09;;;;;;;8.43;5.55;;;;;;;20.67;67.23;100504.63;4921920;29;20408;-84
2022/06/09 01:58:41;;;;;;;7.05;5.45;;;;;;;20.67;66.93;100502.00;4921380;29;20082;-84
2022/06/09 02:01:06;;;;;;;8.45;5.60;;;;;;;20.67;66.97;100496.72;4937167;29;20117;-84
2022/06/09 02:03:36;;;;;;;6.93;5.30;;;;;;;20.55;66.88;100482.91;4921419;29;20413;-84
2022/06/09 02:06:01;;;;;;;7.93;5.90;;;;;;;20.67;66.83;100500.19;4905862;29;20042;-84
2022/06/09 02:08:29;;;;;;;7.13;5.38;;;;;;;20.50;67.06;100487.78;4905124;29;20531;-84
2022/06/09 02:10:56;;;;;;;7.22;5.50;;;;;;;20.52;66.44;100472.69;4906029;29;20031;-84
2022/06/09 02:13:26;;;;;;;9.60;5.07;;;;;;;20.74;65.96;100511.75;4921046;29;20041;-85
2022/06/09 02:15:53;;;;;;;9.77;5.70;;;;;;;20.66;66.09;100495.91;4921668;29;20055;-85
2022/06/09 02:18:21;;;;;;;8.13;5.68;;;;;;;20.68;66.05;100491.31;4921206;29;20485;-84
2022/06/09 02:21:02;;;;;;;6.53;5.40;;;;;;;20.62;66.34;100486.63;4905515;29;20042;-84
2022/06/09 02:23:28;;;;;;;7.88;5.53;;;;;;;20.75;66.46;100510.81;4905306;29;20031;-84
2022/06/09 02:25:54;;;;;;;8.65;5.40;;;;;;;20.71;66.09;100501.53;4936577;29;20070;-84
2022/06/09 02:28:19;;;;;;;12.95;5.45;;;;;;;20.53;66.69;100476.97;4905212;29;20027;-84
2022/06/09 02:30:45;;;;;;;7.53;5.30;;;;;;;20.61;66.63;100498.13;4905197;29;20488;-84
2022/06/09 02:33:10;;;;;;;10.18;5.60;;;;;;;20.57;66.69;100487.06;4920870;29;20118;-83
2022/06/09 02:35:37;;;;;;;6.80;5.22;;;;;;;20.54;67.13;100503.09;4905042;29;20472;-84
2022/06/09 02:38:03;;;;;;;8.38;5.90;;;;;;;20.41;67.27;100496.47;4920783;29;20039;-84
2022/06/09 02:40:28;;;;;;;6.00;5.18;;;;;;;20.40;67.49;100494.81;4936646;29;20469;-84
2022/06/09 02:42:54;;;;;;;10.13;5.65;;;;;;;20.42;67.69;100519.16;4936648;29;20030;-84
2022/06/09 02:45:19;;;;;;;7.00;5.40;;;;;;;20.39;67.39;100516.81;4936372;29;20035;-84
2022/06/09 02:47:45;;;;;;;7.65;5.70;;;;;;;20.35;67.92;100526.75;4936195;29;20596;-84
2022/06/09 02:50:10;;;;;;;8.73;5.65;;;;;;;20.24;68.05;100511.16;4920666;29;20027;-84
2022/06/09 02:52:36;;;;;;;9.50;5.60;;;;;;;20.23;67.92;100512.13;4904344;29;20025;-84
2022/06/09 02:55:02;;;;;;;12.10;5.85;;;;;;;20.24;68.20;100529.53;4904671;29;20038;-84
2022/06/09 02:57:29;;;;;;;8.63;5.63;;;;;;;20.20;68.30;100515.88;4904723;29;20179;-83
2022/06/09 02:59:55;;;;;;;6.72;5.55;;;;;;;20.19;68.29;100505.50;4905005;29;20042;-84
2022/06/09 03:02:20;;;;;;;8.77;6.25;;;;;;;20.43;67.22;100519.03;4936276;29;20031;-84
2022/06/09 03:04:45;;;;;;;9.57;5.28;;;;;;;20.55;66.33;100520.56;4904567;29;20031;-85
2022/06/09 03:07:12;;;;;;;8.30;5.55;;;;;;;20.89;65.79;100526.13;4935674;29;20386;-84
2022/06/09 03:09:38;;;;;;;7.53;5.32;;;;;;;20.98;65.29;100521.78;4936213;29;20050;-85
2022/06/09 03:12:03;;;;;;;7.63;5.32;;;;;;;21.03;64.99;100526.63;4920383;29;20067;-85
2022/06/09 03:14:29;;;;;;;19.27;6.20;;;;;;;21.00;65.16;100511.13;4920166;29;20102;-85
2022/06/09 03:16:54;;;;;;;9.02;5.80;;;;;;;21.04;64.69;100526.50;4904437;29;20098;-84
2022/06/09 03:19:20;;;;;;;8.48;5.65;;;;;;;21.09;64.78;100540.03;4919846;29;20148;-85
2022/06/09 03:21:45;;;;;;;7.80;5.18;;;;;;;21.30;64.09;100544.25;4919917;29;20039;-85
2022/06/09 03:24:11;;;;;;;33.35;6.63;;;;;;;21.27;64.11;100534.84;4936061;29;20039;-84
2022/06/09 03:26:36;;;;;;;15.20;6.03;;;;;;;21.43;63.94;100550.84;4936414;29;20039;-85
2022/06/09 03:29:02;;;;;;;16.70;6.60;;;;;;;21.29;64.21;100540.78;4936205;29;20093;-85
2022/06/09 03:31:27;;;;;;;15.45;6.72;;;;;;;21.26;64.81;100550.75;4935869;29;20019;-85
2022/06/09 03:33:53;;;;;;;24.95;6.72;;;;;;;21.12;64.84;100528.38;4919532;28;20035;-84
2022/06/09 03:36:18;;;;;;;13.15;6.53;;;;;;;21.18;64.82;100538.31;4918872;29;20038;-83
2022/06/09 03:38:44;;;;;;;8.98;5.75;;;;;;;21.29;64.00;100514.47;4951073;29;20031;-85
2022/06/09 03:41:09;;;;;;;9.55;6.32;;;;;;;21.19;64.37;100521.56;4935436;29;20043;-86
2022/06/09 03:43:35;;;;;;;12.00;6.05;;;;;;;21.65;63.34;100548.78;4935140;29;20420;-85
2022/06/09 03:46:01;;;;;;;15.95;6.25;;;;;;;21.75;62.96;100541.66;4919696;29;20034;-86
2022/06/09 03:48:27;;;;;;;8.65;6.00;;;;;;;21.97;62.48;100535.09;4934875;29;20067;-85
2022/06/09 03:50:53;;;;;;;10.02;5.95;;;;;;;22.04;62.70;100528.25;4904128;29;20020;-85
2022/06/09 03:53:18;;;;;;;9.43;5.82;;;;;;;22.07;62.50;100530.59;4935367;29;20034;-85
2022/06/09 03:55:44;;;;;;;8.52;6.10;;;;;;;21.82;63.38;100526.88;4950777;29;20489;-85
2022/06/09 03:58:09;;;;;;;8.30;6.45;;;;;;;21.64;63.95;100537.41;4903732;29;20020;-86
2022/06/09 04:00:35;;;;;;;11.68;6.60;;;;;;;21.67;64.70;100536.28;4919448;29;20028;-85
2022/06/09 04:03:00;;;;;;;10.32;6.18;;;;;;;22.27;62.71;100544.44;4934905;29;20043;-84
2022/06/09 04:05:26;;;;;;;10.52;6.60;;;;;;;22.16;62.28;100534.16;4951171;29;20027;-85
2022/06/09 04:07:52;;;;;;;15.38;6.50;;;;;;;22.52;62.03;100535.75;4934963;29;20032;-85
2022/06/09 04:10:20;;;;;;;11.18;7.75;;;;;;;22.62;61.09;100533.03;4903703;29;20035;-85
2022/06/09 04:12:45;;;;;;;11.52;6.70;;;;;;;22.86;59.98;100519.16;4903013;29;20031;-86
2022/06/09 04:15:11;;;;;;;14.13;10.00;;;;;;;23.17;58.92;100538.75;4926628;29;20048;-84
2022/06/09 04:17:36;;;;;;;13.23;7.85;;;;;;;23.32;57.97;100538.19;4967134;28;20033;-85
2022/06/09 04:20:03;;;;;;;10.88;7.25;;;;;;;23.12;58.91;100551.63;4922410;29;20039;-85
2022/06/09 04:22:28;;;;;;;10.20;8.10;;;;;;;23.05;58.91;100529.50;4951340;29;20522;-87
2022/06/09 04:24:55;;;;;;;12.02;9.35;;;;;;;22.98;59.09;100551.38;4952276;29;20545;-87
2022/06/09 04:27:20;;;;;;;9.90;7.18;;;;;;;22.94;59.42;100542.13;4964700;28;20027;-86
2022/06/09 04:29:46;;;;;;;11.30;7.85;;;;;;;22.70;59.46;100526.94;4918243;29;20412;-86
2022/06/09 04:32:11;;;;;;;8.70;7.05;;;;;;;22.59;59.44;100539.41;4949999;29;20027;-87
2022/06/09 04:34:37;;;;;;;8.10;6.97;;;;;;;23.11;58.61;100551.78;4950331;29;20152;-86
2022/06/09 04:37:02;;;;;;;11.55;7.07;;;;;;;23.10;58.04;100529.00;4938437;28;20083;-88
2022/06/09 04:39:28;;;;;;;11.40;6.63;;;;;;;23.30;57.58;100526.94;4953980;29;20481;-89
2022/06/09 04:41:53;;;;;;;10.27;7.20;;;;;;;23.11;56.94;100526.22;4935174;29;20047;-89
2022/06/09 04:44:19;;;;;;;10.18;6.40;;;;;;;23.02;57.53;100537.72;4935300;29;20035;-89
2022/06/09 04:46:44;;;;;;;10.55;7.18;;;;;;;22.77;56.49;100543.81;4907181;29;20042;-94
2022/06/09 04:49:10;;;;;;;7.82;6.53;;;;;;;22.89;56.20;100550.50;4955146;29;20031;-91
2022/06/09 04:51:35;;;;;;;9.85;6.40;;;;;;;22.72;56.77;100540.81;4921647;29;20485;-91
2022/06/09 04:54:01;;;;;;;8.60;6.20;;;;;;;22.77;53.60;100542.00;4940108;29;20027;-93
2022/06/09 04:56:26;;;;;;;9.30;6.10;;;;;;;22.96;54.95;100550.72;4938622;29;20034;-92
2022/06/09 04:58:52;;;;;;;10.32;5.47;;;;;;;23.02;52.26;100535.09;4949288;28;20046;-90
2022/06/09 05:01:21;;;;;;;9.43;5.40;;;;;;;23.43;53.22;100551.09;4945315;28;20417;-90
2022/06/09 05:03:47;;;;;;;13.43;6.05;;;;;;;23.36;50.96;100547.41;4931748;29;20019;-91
2022/06/09 05:06:13;;;;;;;13.57;8.27;;;;;;;23.54;50.92;100550.78;4948693;29;20043;-91
2022/06/09 05:08:40;;;;;;;9.30;5.78;;;;;;;23.62;50.31;100548.19;4941662;29;20567;-88
2022/06/09 05:11:05;;;;;;;6.78;5.10;;;;;;;23.81;48.30;100551.56;4965622;28;20038;-89
2022/06/09 05:13:31;;;;;;;8.25;5.20;;;;;;;23.63;49.74;100544.56;4971999;28;20516;-88
2022/06/09 05:15:56;;;;;;;10.43;5.30;;;;;;;23.74;48.08;100552.19;4949091;28;20051;-92
2022/06/09 05:18:26;;;;;;;9.75;4.82;;;;;;;23.24;49.33;100551.34;4914333;29;20050;-89
2022/06/09 05:20:52;;;;;;;7.93;4.60;;;;;;;23.38;48.18;100548.91;4939006;29;20026;-93
2022/06/09 05:23:18;;;;;;;10.40;5.03;;;;;;;23.50;49.82;100538.91;4950168;29;20488;-90
2022/06/09 05:25:45;;;;;;;9.98;5.50;;;;;;;23.75;49.40;100532.72;4958053;28;20556;-88
2022/06/09 05:28:11;;;;;;;9.32;4.65;;;;;;;23.72;48.61;100548.06;4932546;29;20447;-92
2022/06/09 05:30:36;;;;;;;7.05;5.25;;;;;;;23.75;48.94;100545.09;4932703;29;20035;-91
2022/06/09 05:33:02;;;;;;;8.43;5.13;;;;;;;23.18;48.94;100526.41;4922874;29;20082;-84
2022/06/09 05:35:28;;;;;;;8.25;5.13;;;;;;;22.92;49.37;100544.94;4959493;28;20042;-92
2022/06/09 05:46:19;;;;;;;10.75;6.07;;;;;;;22.76;50.68;100528.97;4934230;29;20106;-91
2022/06/09 05:48:46;;;;;;;8.30;5.70;;;;;;;22.51;49.56;100536.72;4903443;29;20019;-90
2022/06/09 05:51:12;;;;;;;6.85;5.63;;;;;;;22.48;51.12;100523.84;4927853;29;20142;-86
2022/06/09 05:53:37;;;;;;;10.25;6.18;;;;;;;22.67;52.00;100532.53;4926650;29;20413;-87
2022/06/09 05:56:04;;;;;;;12.75;8.10;;;;;;;23.00;51.20;100541.47;4933351;29;20039;-87
2022/06/09 05:58:30;;;;;;;14.57;8.63;;;;;;;23.16;49.85;100525.75;4971823;28;20560;-86
2022/06/09 06:00:55;;;;;;;14.98;8.57;;;;;;;23.37;49.84;100544.63;4967894;28;20051;-90
2022/06/09 06:03:21;;;;;;;9.70;5.78;;;;;;;22.80;49.29;100503.94;4928571;29;20030;-87
2022/06/09 06:08:30;;;;;;;14.95;7.20;;;;;;;23.36;50.20;100540.31;4960795;28;20073;-89
2022/06/09 06:10:56;;;;;;;13.50;6.53;;;;;;;23.54;49.53;100529.66;4963479;28;20067;-86
2022/06/09 06:13:22;;;;;;;8.93;5.80;;;;;;;23.56;49.57;100529.50;4948731;29;20386;-93
2022/06/09 06:15:47;;;;;;;9.27;5.60;;;;;;;23.56;49.98;100537.41;4912192;29;20058;-89
2022/06/09 06:18:13;;;;;;;14.45;6.57;;;;;;;23.54;49.38;100511.19;4930797;29;20035;-88
2022/06/09 06:20:38;;;;;;;9.32;6.05;;;;;;;23.48;49.78;100511.81;4929816;29;20421;-89
2022/06/09 06:23:04;;;;;;;10.25;7.20;;;;;;;23.56;47.50;100514.47;4963443;28;20034;-86
2022/06/09 06:25:29;;;;;;;10.55;5.85;;;;;;;23.23;49.33;100515.38;4961370;28;20130;-90
2022/06/09 06:27:55;;;;;;;11.90;6.55;;;;;;;23.32;50.15;100515.25;4916741;29;20032;-86
2022/06/09 06:30:20;;;;;;;9.80;5.90;;;;;;;23.25;49.50;100516.03;4924260;29;20521;-88
2022/06/09 06:32:46;;;;;;;11.88;6.40;;;;;;;23.23;48.55;100512.75;4957428;28;20027;-88
2022/06/09 06:35:12;;;;;;;12.10;7.13;;;;;;;23.27;49.29;100512.25;4901514;29;20063;-89
2022/06/09 06:37:38;;;;;;;24.67;15.35;;;;;;;23.56;50.10;100500.44;4912569;29;20086;-86
2022/06/09 06:40:04;;;;;;;14.88;9.95;;;;;;;23.75;49.42;100503.66;4929817;29;20027;-88
2022/06/09 06:42:30;;;;;;;16.38;7.45;;;;;;;23.94;50.57;100514.91;4949915;29;20425;-87
2022/06/09 06:44:55;;;;;;;12.23;6.90;;;;;;;23.95;49.00;100509.44;4960592;28;20065;-89
2022/06/09 06:47:21;;;;;;;11.27;6.38;;;;;;;24.12;48.59;100517.38;4946084;29;20047;-91
2022/06/09 06:49:46;;;;;;;13.00;6.70;;;;;;;23.94;49.75;100505.16;4962473;28;20035;-93
2022/06/09 06:52:12;;;;;;;8.15;5.95;;;;;;;23.80;48.59;100507.63;4959155;28;20094;-91
2022/06/09 06:54:37;;;;;;;8.77;5.65;;;;;;;23.50;49.33;100517.78;4931263;29;20428;-94
2022/06/09 06:57:05;;;;;;;9.80;6.45;;;;;;;23.50;49.80;100507.22;4948735;29;20146;-92
2022/06/09 06:59:32;;;;;;;9.77;6.30;;;;;;;23.54;51.01;100505.91;4961643;28;20031;-91
2022/06/09 07:01:58;;;;;;;7.10;6.32;;;;;;;23.47;50.49;100504.88;4928462;29;20476;-91
2022/06/09 07:04:23;;;;;;;13.80;6.85;;;;;;;23.68;49.29;100499.19;4943933;29;20940;-89
2022/06/09 07:06:49;;;;;;;12.82;7.07;;;;;;;23.48;50.90;100493.34;4921098;29;20031;-92
2022/06/09 07:09:14;;;;;;;8.73;5.93;;;;;;;23.56;49.97;100496.00;4967980;28;20042;-90
2022/06/09 07:11:40;;;;;;;7.05;5.32;;;;;;;23.60;49.40;100496.53;4950953;29;20472;-88
2022/06/09 07:14:05;;;;;;;9.73;5.35;;;;;;;23.57;49.80;100495.00;4950074;29;20115;-85
2022/06/09 07:16:31;;;;;;;8.23;5.43;;;;;;;23.58;49.44;100503.75;4952616;28;20039;-85
2022/06/09 07:18:56;;;;;;;8.02;5.35;;;;;;;23.51;49.59;100471.91;4955057;28;20464;-85
2022/06/09 07:21:21;;;;;;;21.13;17.95;;;;;;;23.65;50.87;100488.94;4945611;29;20031;-87
2022/06/09 07:23:47;;;;;;;22.95;18.38;;;;;;;23.87;49.07;100493.59;4949284;29;20038;-86
2022/06/09 07:26:12;;;;;;;9.20;6.22;;;;;;;24.04;49.11;100486.50;4933891;29;20520;-84
2022/06/09 07:28:38;;;;;;;9.95;6.05;;;;;;;24.11;49.52;100468.19;4947293;29;20089;-85
2022/06/09 07:31:04;;;;;;;8.57;5.97;;;;;;;24.40;48.63;100491.47;4945040;28;20097;-86
2022/06/09 07:33:31;;;;;;;14.70;10.20;;;;;;;24.53;48.14;100478.53;4907600;29;20492;-87
2022/06/09 07:35:56;;;;;;;11.43;6.15;;;;;;;24.68;47.71;100481.28;4928471;28;20122;-84
2022/06/09 07:38:22;;;;;;;7.68;5.13;;;;;;;24.77;45.98;100483.75;4941478;29;20031;-87
2022/06/09 07:40:48;;;;;;;8.88;5.30;;;;;;;24.80;46.47;100486.06;4948064;28;20035;-89
2022/06/09 07:43:13;;;;;;;8.68;5.03;;;;;;;25.11;46.79;100487.97;4905628;29;20066;-86
2022/06/09 07:45:39;;;;;;;7.03;4.93;;;;;;;25.32;45.12;100482.88;4944422;28;21380;-86
2022/06/09 07:48:05;;;;;;;11.52;5.15;;;;;;;25.54;46.52;100477.78;4935067;29;20572;-93
2022/06/09 07:50:31;;;;;;;7.47;4.57;;;;;;;25.84;44.35;100486.72;4918267;29;20027;-87
2022/06/09 07:52:57;;;;;;;9.65;4.75;;;;;;;25.66;42.49;100439.28;4926366;29;20023;-87
2022/06/09 07:55:22;;;;;;;7.32;4.60;;;;;;;25.89;43.32;100464.00;4952953;28;20083;-87
2022/06/09 07:57:48;;;;;;;7.68;4.45;;;;;;;25.94;42.90;100477.50;4936715;29;20069;-88
2022/06/09 08:00:14;;;;;;;6.43;4.45;;;;;;;25.88;42.20;100462.34;4936018;29;20062;-93
2022/06/09 08:02:41;;;;;;;5.15;4.00;;;;;;;25.85;41.19;100467.97;4928947;29;20042;-93
2022/06/09 08:05:06;;;;;;;8.20;4.35;;;;;;;25.92;41.57;100465.44;4969560;28;20032;-92
2022/06/09 08:07:32;;;;;;;10.32;5.25;;;;;;;25.88;41.52;100462.34;4930870;29;20124;-87
2022/06/09 08:09:57;;;;;;;14.57;8.45;;;;;;;25.90;41.00;100472.75;4929511;29;20481;-92
2022/06/09 08:12:23;;;;;;;11.77;5.38;;;;;;;25.71;42.56;100459.00;4970337;28;20027;-91
2022/06/09 08:14:48;;;;;;;16.73;11.30;;;;;;;25.82;43.30;100465.69;4947549;29;20051;-89
2022/06/09 08:17:14;;;;;;;12.15;7.97;;;;;;;25.85;42.50;100460.03;4920843;29;20070;-88
2022/06/09 08:19:39;;;;;;;9.55;5.55;;;;;;;25.89;42.33;100461.34;4951508;28;20031;-87
2022/06/09 08:22:05;;;;;;;9.73;5.20;;;;;;;25.97;43.14;100453.31;4949404;28;20043;-93
2022/06/09 08:24:33;;;;;;;10.32;6.82;;;;;;;26.27;42.92;100469.28;4949016;29;20042;-87
2022/06/09 08:27:00;;;;;;;6.10;4.10;;;;;;;26.27;41.92;100458.69;4944810;29;20150;-87
2022/06/09 08:29:25;;;;;;;7.07;5.18;;;;;;;26.30;42.35;100463.63;4935491;29;20031;-88
2022/06/09 08:31:51;;;;;;;8.18;6.03;;;;;;;26.42;42.92;100471.97;4925422;29;20046;-93
2022/06/09 08:34:16;;;;;;;10.82;5.20;;;;;;;26.51;41.55;100460.28;4955518;28;20128;-87
2022/06/09 08:36:42;;;;;;;11.30;6.53;;;;;;;26.52;41.54;100451.31;4926539;28;20083;-90
2022/06/09 08:39:08;;;;;;;10.43;5.60;;;;;;;26.78;42.02;100464.13;4916520;29;20027;-87
2022/06/09 08:41:45;;;;;;;7.88;4.70;;;;;;;26.88;41.13;100454.03;4916202;29;20055;-91
2022/06/09 08:44:15;;;;;;;8.38;5.20;;;;;;;26.88;41.50;100459.34;4965982;28;20464;-90
2022/06/09 08:47:05;;;;;;;14.02;5.88;;;;;;;27.17;41.87;100453.19;4968610;28;20031;-88
2022/06/09 08:49:51;;;;;;;5.63;4.88;;;;;;;27.40;40.88;100450.38;4965921;28;20031;-88
2022/06/09 08:53:05;;;;;;;10.45;4.25;;;;;;;27.43;39.46;100445.53;4947512;28;20052;-88
2022/06/09 08:55:45;;;;;;;5.05;4.15;;;;;;;27.22;40.34;100450.78;4881051;29;20096;-86
2022/06/09 08:58:15;;;;;;;9.15;5.03;;;;;;;27.29;41.47;100442.91;4945002;29;20118;-86
2022/06/09 09:01:00;;;;;;;7.05;4.68;;;;;;;27.25;41.23;100420.41;4963262;28;20059;-87
2022/06/09 09:03:28;;;;;;;6.47;4.72;;;;;;;27.49;41.97;100446.59;4899695;29;20031;-84
2022/06/09 09:06:09;;;;;;;5.57;4.47;;;;;;;27.47;40.24;100430.00;4948045;28;20035;-90
2022/06/09 09:08:36;;;;;;;8.40;4.47;;;;;;;27.57;40.06;100430.50;4916873;29;20766;-88
2022/06/09 09:11:01;;;;;;;9.20;4.88;;;;;;;27.63;40.45;100435.09;4947648;29;20063;-87
2022/06/09 09:13:43;;;;;;;10.98;6.40;;;;;;;27.41;39.99;100407.66;4951114;29;20043;-87
2022/06/09 09:16:10;;;;;;;;;;;;;;;27.60;39.99;100435.44;4947479;29;20093;-90
2022/06/09 09:18:55;;;;;;;14.30;5.90;;;;;;;27.41;40.58;100434.25;4962429;28;19926;-90
2022/06/09 09:21:39;;;;;;;8.13;5.07;;;;;;;27.33;41.50;100422.91;4961033;28;20058;-91
2022/06/09 09:24:08;;;;;;;10.50;5.05;;;;;;;27.29;41.29;100437.59;4947017;29;20547;-90
2022/06/09 09:26:43;;;;;;;10.35;4.60;;;;;;;27.41;41.04;100426.25;4962070;28;20027;-87
2022/06/09 09:29:16;;;;;;;6.07;4.43;;;;;;;27.74;41.41;100414.34;4943866;29;20054;-86
2022/06/09 09:31:55;;;;;;;9.20;4.50;;;;;;;27.84;41.45;100425.47;4907434;28;20492;-86
2022/06/09 09:34:34;;;;;;;8.43;4.20;;;;;;;27.64;39.47;100404.84;4950978;28;20063;-88
2022/06/09 09:37:29;;;;;;;4.70;4.15;;;;;;;27.87;38.61;100403.81;4937912;28;20075;-86
2022/06/09 09:40:06;;;;;;;7.07;4.32;;;;;;;27.94;38.46;100407.34;4935856;29;20047;-84
2022/06/09 09:42:33;;;;;;;5.00;4.00;;;;;;;28.11;39.09;100403.34;4944996;29;20050;-91
2022/06/09 09:45:12;;;;;;;10.85;5.10;;;;;;;28.37;38.83;100404.59;4948347;29;20027;-86
2022/06/09 09:48:01;;;;;;;9.30;4.85;;;;;;;28.01;38.02;100394.91;4934801;29;20027;-88
2022/06/09 09:50:49;;;;;;;6.95;4.90;;;;;;;27.63;38.44;100367.78;4927961;29;20074;-88
2022/06/09 09:53:17;;;;;;;7.32;4.18;;;;;;;27.65;38.54;100400.34;4950772;29;20042;-87
2022/06/09 09:55:58;;;;;;;5.35;4.20;;;;;;;27.63;38.45;100397.88;4949268;29;20059;-86
2022/06/09 09:58:40;;;;;;;7.70;4.10;;;;;;;27.94;36.96;100389.56;4949281;29;20027;-90
2022/06/09 10:01:26;;;;;;;7.13;3.70;;;;;;;28.05;35.56;100388.19;4973894;28;20333;-85
2022/06/09 10:09:33;;;;;;;8.18;4.03;;;;;;;28.33;35.90;100377.56;4943091;29;20523;-85
2022/06/09 10:12:27;;;;;;;4.93;3.72;;;;;;;28.21;35.93;100369.25;4945222;29;20122;-93
2022/06/09 10:14:56;;;;;;;9.57;4.65;;;;;;;28.62;36.20;100392.44;4948711;28;20055;-90
2022/06/09 10:17:37;;;;;;;6.20;4.20;;;;;;;28.85;34.96;100398.25;4936545;29;20513;-93
2022/06/09 10:20:25;;;;;;;8.00;4.30;;;;;;;29.10;34.21;100392.41;4953908;29;20430;-94
2022/06/09 10:23:01;;;;;;;7.95;4.18;;;;;;;29.04;33.47;100383.38;4953377;28;20484;-88
2022/06/09 10:25:35;;;;;;;7.18;3.67;;;;;;;29.02;33.16;100382.78;4966858;28;20118;-88
2022/06/09 10:28:27;;;;;;;5.15;3.55;;;;;;;28.93;33.21;100383.16;4958655;28;20035;-91
2022/06/09 10:30:59;;;;;;;4.78;3.70;;;;;;;29.15;33.73;100371.31;4940865;29;20051;-90
2022/06/09 10:33:28;;;;;;;10.52;4.00;;;;;;;29.31;34.19;100372.78;4929254;29;20035;-88
2022/06/09 10:35:57;;;;;;;8.13;4.88;;;;;;;29.06;31.89;100373.34;4931909;28;20027;-89
2022/06/09 10:38:26;;;;;;;6.38;3.72;;;;;;;29.12;32.34;100364.56;4895810;29;20039;-89
2022/06/09 10:40:55;;;;;;;10.23;3.38;;;;;;;29.33;33.30;100376.06;4944105;28;20838;-88
2022/06/09 10:43:46;;;;;;;5.47;3.72;;;;;;;29.50;32.98;100374.69;4946062;28;20059;-87
2022/06/09 10:46:14;;;;;;;7.43;3.67;;;;;;;29.61;31.85;100360.72;4947082;29;20461;-87
2022/06/09 10:55:14;;;;;;;7.45;4.10;;;;;;;28.94;34.20;100376.81;4927655;29;20042;-93
2022/06/09 10:57:46;;;;;;;9.32;4.07;;;;;;;28.89;35.60;100361.41;4945011;29;20035;-85
2022/06/09 11:00:15;;;;;;;8.63;3.70;;;;;;;28.68;35.90;100356.19;4960446;28;20027;-88
2022/06/09 11:02:44;;;;;;;4.57;3.50;;;;;;;28.78;36.00;100359.31;4959030;28;21252;-89
2022/06/09 11:05:13;;;;;;;7.50;4.75;;;;;;;28.63;36.06;100335.53;4923361;28;20031;-90
2022/06/09 11:08:23;;;;;;;8.70;3.63;;;;;;;28.82;35.72;100345.41;4940340;28;20515;-85
2022/06/09 11:11:06;;;;;;;6.95;3.33;;;;;;;28.76;35.64;100340.06;4930187;29;20038;-90
2022/06/09 11:13:48;;;;;;;5.70;3.53;;;;;;;28.51;36.13;100321.94;4928742;29;20522;-88
2022/06/09 11:16:54;;;;;;;7.50;3.80;;;;;;;28.57;35.64;100334.47;4959996;28;20051;-90
2022/06/09 11:19:38;;;;;;;5.75;3.70;;;;;;;28.65;34.98;100333.47;4963527;28;20448;-90
2022/06/09 11:22:10;;;;;;;9.80;4.00;;;;;;;28.73;34.95;100317.34;4946355;29;20053;-91
2022/06/09 11:24:45;;;;;;;4.65;3.65;;;;;;;28.95;34.42;100315.34;4950152;28;20082;-86
2022/06/09 11:27:26;;;;;;;12.02;3.72;;;;;;;28.91;34.60;100321.28;4968891;28;20045;-85
2022/06/09 11:30:20;;;;;;;9.25;3.67;;;;;;;28.72;35.22;100328.19;4957419;28;20126;-90
2022/06/09 11:33:11;;;;;;;6.05;3.60;;;;;;;28.59;35.24;100315.63;4942545;29;20046;-86
2022/06/09 11:35:58;;;;;;;8.00;3.83;;;;;;;28.47;34.73;100293.28;4927747;29;20131;-87
2022/06/09 11:38:33;;;;;;;9.40;4.38;;;;;;;28.42;34.18;100303.72;4931609;29;20051;-86
2022/06/09 11:41:24;;;;;;;13.77;8.98;;;;;;;28.61;33.49;100300.28;4951057;29;20035;-87
2022/06/09 11:44:05;;;;;;;8.82;5.75;;;;;;;28.64;33.94;100286.59;4937409;29;20031;-86
2022/06/09 11:46:38;;;;;;;14.23;11.35;;;;;;;28.99;33.66;100286.47;4952306;28;20071;-91
2022/06/09 11:49:26;;;;;;;10.65;4.47;;;;;;;29.26;33.73;100269.47;4918839;29;20050;-89
2022/06/09 11:51:52;;;;;;;5.68;3.28;;;;;;;29.53;32.34;100291.63;4936545;29;20039;-89
2022/06/09 11:54:38;;;;;;;6.22;3.03;;;;;;;29.85;33.04;100294.44;4944243;29;20090;-89
2022/06/09 11:57:16;;;;;;;6.70;3.10;;;;;;;29.82;31.54;100303.69;4940909;29;20114;-93
2022/06/09 12:00:05;;;;;;;5.25;3.20;;;;;;;29.69;31.25;100298.38;4952301;29;20031;-90